Kingsport, TN (37660)

10:18 AM EDT on August 31, 2016 (GMT -0400)
Near Meadowview | | Change Station

Elev 1302 ft 36.51 °N, 82.57 °W | Updated 11 minutes ago

Clear
Clear
79.0 °F
Feels Like 82 °F
N
0.0
Wind Variable Wind from SSW

Today
High -- | Low -- °F
--% Chance of Precip.
Yesterday
High -- | Low -- °F
Precip. -- in
Pressure 29.99 in
Visibility 10.0 miles
Clouds Clear
Heat Index 82 °F
Dew Point 73 °F
Humidity 81%
Rainfall 0.00 in
Snow Depth Not available.
7:01 AM 7:58 PM
Waning Crescent, 1% visible
METAR KTRI 311353Z VRB03KT 10SM CLR 25/19 A3007 RMK AO2 SLP156 T02500194
Pressure 29.99 in
Visibility 10.0 miles
Clouds Clear
Heat Index 82 °F
Dew Point 73 °F
Humidity 81%
Rainfall 0.00 in
Snow Depth Not available.
7:01 AM 7:58 PM
Waning Crescent, 1% visible
METAR KTRI 311353Z VRB03KT 10SM CLR 25/19 A3007 RMK AO2 SLP156 T02500194

10-Day Weather Forecast

Almanac

Astronomy

Aug. 31, 2016 Rise Set
Actual Time
Civil Twilight
Nautical Twilight
Astronomical Twilight
Moon
Length of Visible Light
Length of Day
Tomorrow will be .
, % of the Moon is Illuminated

Today's Extremes

State Highs State Lows

Community

WunderPhotos

Upload Photos

1,936,087 photos uploaded!

WunderBlog® & News

Nearby

Air Quality

  Air Quality AQ Index Pollutant
Not available.

Snow Depth

Station Depth Elevation

Earthquake Activity

City Distance Mag. Time & Date
Minimum magnitude displayed is 2.5.

Coastal Water Temperatures

Place Temperature

Stations

Nearby Weather Stations

Station Location Temp. Windchill Dew Point Humidity Wind Precip. Elev Updated Type
                   

Watches & Warnings

There are currently no watches in effect.